URSSURMN

Guest
Details From URSS - Sochi
To URMN - Nalchik
Flight Number -
Tags Routegen Generated
Created
Modified
Stats Distance 161 nm / 298 km
Max Altitude 800 ft / 244 m
Waypoints 7
Social Downloads 1
Likes 0
Share VATSIM

Download

Looking for another format? Having issues loading an existing format? Contact us
Advertisement - Login to hide

Notes

Departing runway 6 URSS. Arriving runway 6 URMN.

Route

URSS +43.48_+040.05 +43.49_+040.13 +43.49_+041.35 +43.47_+043.46 +43.47_+043.54 URMN

ID Type Via Altitude Latitude Longitude Leg Dist Tot Dist Heading (true) Name
O URSS APT - 0 ft / 0 m 43.45056˚ 39.95847˚ - 0 nm - -
+43.48_+040.05 LATLON - 800 ft / 244 m 43.48120˚ 40.04880˚ 4 nm 4 nm 65° / 65° -
+43.49_+040.13 LATLON - 800 ft / 244 m 43.48630˚ 40.12828˚ 3 nm 7 nm 85° / 85° -
+43.49_+041.35 LATLON - 800 ft / 244 m 43.48917˚ 41.34896˚ 53 nm 61 nm 89° / 90° -
+43.47_+043.46 LATLON - 800 ft / 244 m 43.46705˚ 43.45697˚ 91 nm 152 nm 90° / 92° -
+43.47_+043.54 LATLON - 800 ft / 244 m 43.47471˚ 43.53604˚ 3 nm 156 nm 82° / 82° -
O URMN APT - 0 ft / 0 m 43.50825˚ 43.62443˚ 4 nm 160 nm 62° / 62° -

Altitude Profile

Advertisement - Login to hide

URSS

Details ICAO URSS (AER)
Name Sochi
Region Russia
Timezone Europe/Moscow (UTC+3.0)
Stats Elevation 89 ft / 27 m (AMSL)
Location 43.444749° 39.947302°
Runways 2
Magnetic Variation 6.962° E

METAR

URSS 150900Z 21002MPS 9999 NSC 13/06 Q1018 R02/090070 R06/090070 NOSIG RMK R06/19002MPS QFE762

Decode

TAF

TAF URSS 150757Z 1509/1609 VRB01MPS 9999 SCT100 BECMG 1514/1515 06006MPS TEMPO 1517/1608 03007G12MPS

Decode

Departure Runways

ID Width Length Bearing (true) Bearing (mag) Surface Threshold Offset Overrun Length
02 161 ft / 49 m 7,267 ft / 2,215 m 28.98° 22.02° Concrete 0 ft / 0 m 0 ft / 0 m
06 164 ft / 50 m 9,531 ft / 2,905 m 64.90° 57.94° Concrete 262 ft / 80 m 0 ft / 0 m
20 161 ft / 49 m 7,267 ft / 2,215 m 208.99° 202.03° Concrete 0 ft / 0 m 0 ft / 0 m
24 164 ft / 50 m 9,531 ft / 2,905 m 244.92° 237.96° Concrete 0 ft / 0 m 0 ft / 0 m

URMN

Details ICAO URMN (NAL)
Name NALCHIK
Region Russia
Timezone Europe/Moscow (UTC+3.0)
Stats Elevation 1,462 ft / 446 m (AMSL)
Location 43.512854° 43.636583°
Runways 1
Magnetic Variation 7.184° E

METAR

URMN 150900Z 31001MPS 2500 BR OVC003 00/M01 Q1016 R24/110060 NOSIG RMK MT OBSC OBST OBSC QFE725

Decode

TAF

Not found

Destination Runways

ID Width Length Bearing (true) Bearing (mag) Surface Threshold Offset Overrun Length
06 138 ft / 42 m 7,256 ft / 2,212 m 62.40° 55.22° Asphalt 0 ft / 0 m 145 ft / 44 m
24 138 ft / 42 m 7,256 ft / 2,212 m 242.42° 235.24° Asphalt 0 ft / 0 m 160 ft / 49 m

Approach Navaids

Runway Type Ident Frequency Range Bearing (true) Bearing (mag) Slope Elevation
24 Localiser INL 110.50 MHz 18 nm / 33 km 241.33° 234.15° - 1,462 ft / 446 m (AMSL)
24 Glidescope INL 110.50 MHz 10 nm / 19 km 242.41° 235.23° 2.70° 1,462 ft / 446 m (AMSL)

Popular Alternatives